createdAt,value
2023-05-04T00:00:47.564Z,101227.56
2023-05-04T00:03:34.867Z,101223.47
2023-05-04T00:06:22.310Z,101222.31
2023-05-04T00:09:11.353Z,101222.63
2023-05-04T00:11:58.546Z,101232.84
2023-05-04T00:14:45.781Z,101212.09
2023-05-04T00:17:33.212Z,101204.13
2023-05-04T00:20:20.559Z,101206.97
2023-05-04T00:23:08.338Z,101207.53
2023-05-04T00:25:55.853Z,101210.69
2023-05-04T00:28:43.052Z,101199.00
2023-05-04T00:31:30.275Z,101197.88
2023-05-04T00:34:17.502Z,101195.34
2023-05-04T00:37:05.000Z,101203.56
2023-05-04T00:39:52.230Z,101195.16
2023-05-04T00:42:39.443Z,101194.44
2023-05-04T00:45:26.820Z,101181.25
2023-05-04T00:48:14.325Z,101184.50
2023-05-04T00:51:02.211Z,101174.13
2023-05-04T00:53:50.019Z,101170.88
2023-05-04T00:56:43.497Z,101169.44
2023-05-04T00:59:30.730Z,101172.97
2023-05-04T01:02:18.080Z,101164.03
2023-05-04T01:05:06.651Z,101160.06
2023-05-04T01:08:05.178Z,101160.91
2023-05-04T01:11:09.346Z,101160.19
2023-05-04T01:13:57.101Z,101152.53
2023-05-04T01:16:44.421Z,101154.66
2023-05-04T01:19:32.210Z,101142.16
2023-05-04T01:22:19.811Z,101145.84
2023-05-04T01:25:08.260Z,101130.53
2023-05-04T01:28:04.428Z,101139.31
2023-05-04T01:31:00.817Z,101124.81
2023-05-04T01:33:51.020Z,101125.66
2023-05-04T01:36:40.091Z,101110.34
2023-05-04T01:39:27.302Z,101111.06
2023-05-04T01:42:14.583Z,101116.72
2023-05-04T01:45:02.147Z,101111.63
2023-05-04T01:47:50.227Z,101108.19
2023-05-04T01:50:37.470Z,101102.38
2023-05-04T01:53:24.660Z,101103.34
2023-05-04T01:56:11.956Z,101097.38
2023-05-04T01:58:59.276Z,101091.84
2023-05-04T02:01:46.586Z,101091.41
2023-05-04T02:04:34.293Z,101085.31
2023-05-04T02:07:22.072Z,101093.25
2023-05-04T02:10:09.822Z,101082.88
2023-05-04T02:12:58.337Z,101088.41
2023-05-04T02:15:45.694Z,101091.94
2023-05-04T02:18:32.956Z,101084.84
2023-05-04T02:21:20.176Z,101082.44
2023-05-04T02:24:07.724Z,101074.34
2023-05-04T02:26:55.020Z,101073.91
2023-05-04T02:29:42.326Z,101069.53
2023-05-04T02:32:29.589Z,101072.72
2023-05-04T02:35:16.865Z,101079.13
2023-05-04T02:38:04.067Z,101075.72
2023-05-04T02:40:51.306Z,101069.63
2023-05-04T02:43:38.502Z,101070.84
2023-05-04T02:46:27.038Z,101064.50
2023-05-04T02:49:14.395Z,101065.06
2023-05-04T02:52:01.694Z,101059.94
2023-05-04T02:54:50.129Z,101054.69
2023-05-04T02:57:39.048Z,101052.88
2023-05-04T03:00:26.493Z,101053.72
2023-05-04T03:03:13.805Z,101049.59
2023-05-04T03:06:01.357Z,101044.63
2023-05-04T03:08:48.685Z,101042.81
2023-05-04T03:11:36.054Z,101044.09
2023-05-04T03:14:23.305Z,101039.53
2023-05-04T03:17:10.494Z,101032.19
2023-05-04T03:19:57.717Z,101038.69
2023-05-04T03:22:44.950Z,101024.38
2023-05-04T03:25:32.408Z,101019.44
2023-05-04T03:28:19.608Z,101009.25
2023-05-04T03:31:06.885Z,101007.53
2023-05-04T03:33:54.133Z,101013.78
2023-05-04T03:36:41.500Z,101022.84
2023-05-04T03:39:28.738Z,101009.25
2023-05-04T03:42:16.271Z,101012.38
2023-05-04T03:45:04.318Z,101006.41
2023-05-04T03:47:51.800Z,101012.63
2023-05-04T03:50:39.066Z,101014.75
2023-05-04T03:53:26.444Z,101017.19
2023-05-04T03:56:13.634Z,101003.72
2023-05-04T03:59:01.666Z,101005.53
2023-05-04T04:01:48.882Z,100998.75
2023-05-04T04:04:36.176Z,101000.19
2023-05-04T04:07:23.734Z,100983.16
2023-05-04T04:10:11.388Z,100979.75
2023-05-04T04:12:58.647Z,100978.78
2023-05-04T04:15:46.901Z,100977.66
2023-05-04T04:18:34.189Z,100974.09
2023-05-04T04:21:21.549Z,100988.56
2023-05-04T04:24:08.847Z,100976.22
2023-05-04T04:26:56.317Z,100971.53
2023-05-04T04:29:44.086Z,100969.00
2023-05-04T04:32:32.440Z,100969.88
2023-05-04T04:35:19.742Z,100973.97
2023-05-04T04:38:07.337Z,100967.88
2023-05-04T04:40:54.539Z,100956.09
2023-05-04T04:43:41.773Z,100940.66
2023-05-04T04:46:29.028Z,100950.31
2023-05-04T04:49:18.095Z,100945.75
2023-05-04T04:52:06.153Z,100941.78
2023-05-04T04:54:53.410Z,100940.09
2023-05-04T04:57:40.661Z,100942.09
2023-05-04T05:00:27.915Z,100934.41
2023-05-04T05:03:15.251Z,100938.97
2023-05-04T05:06:02.879Z,100923.63
2023-05-04T05:08:50.029Z,100929.59
2023-05-04T05:11:37.237Z,100930.44
2023-05-04T05:14:24.484Z,100938.97
2023-05-04T05:17:12.496Z,100936.97
2023-05-04T05:19:59.719Z,100941.25
2023-05-04T05:22:47.008Z,100945.63
2023-05-04T05:25:39.179Z,100942.66
2023-05-04T05:28:26.572Z,100932.44
2023-05-04T05:31:14.088Z,100932.31
2023-05-04T05:34:01.709Z,100932.72
2023-05-04T05:36:49.318Z,100929.59
2023-05-04T05:39:37.415Z,100933.84
2023-05-04T05:42:24.755Z,100931.56
2023-05-04T05:45:12.003Z,100927.88
2023-05-04T05:47:59.201Z,100918.78
2023-05-04T05:50:46.760Z,100919.03
2023-05-04T05:53:33.956Z,100915.59
2023-05-04T05:56:22.586Z,100913.59
2023-05-04T05:59:09.796Z,100906.34
2023-05-04T06:01:57.008Z,100904.81
2023-05-04T06:04:47.455Z,100897.09
2023-05-04T06:07:34.765Z,100900.63
2023-05-04T06:10:22.170Z,100892.25
2023-05-04T06:13:17.757Z,100882.53
2023-05-04T06:16:05.320Z,100876.00
2023-05-04T06:18:52.574Z,100881.91
2023-05-04T06:21:39.794Z,100880.13
2023-05-04T06:24:27.372Z,100867.78
2023-05-04T06:27:14.633Z,100862.78
2023-05-04T06:30:02.041Z,100862.53
2023-05-04T06:32:49.295Z,100854.69
2023-05-04T06:35:36.645Z,100849.81
2023-05-04T06:38:23.877Z,100842.00
2023-05-04T06:41:11.331Z,100836.28
2023-05-04T06:44:00.224Z,100844.66
2023-05-04T06:46:47.489Z,100824.91
2023-05-04T06:49:35.611Z,100817.69
2023-05-04T06:52:22.892Z,100829.06
2023-05-04T06:55:10.192Z,100816.69
2023-05-04T06:57:57.824Z,100809.25
2023-05-04T07:00:45.052Z,100803.16
2023-05-04T07:03:32.796Z,100790.81
2023-05-04T07:06:21.327Z,100780.59
2023-05-04T07:09:08.695Z,100775.19
2023-05-04T07:11:55.931Z,100775.22
2023-05-04T07:14:43.182Z,100755.75
2023-05-04T07:17:32.550Z,100756.47
2023-05-04T07:20:24.294Z,100772.72
2023-05-04T07:23:12.602Z,100763.25
2023-05-04T07:26:00.175Z,100742.75
2023-05-04T07:28:47.557Z,100743.56
2023-05-04T07:31:35.278Z,100727.50
2023-05-04T07:34:30.186Z,100727.66
2023-05-04T07:37:25.372Z,100741.41
2023-05-04T07:40:14.933Z,100736.00
2023-05-04T07:43:02.142Z,100739.88
2023-05-04T07:45:49.614Z,100737.50
2023-05-04T07:48:36.923Z,100729.03
2023-05-04T07:51:24.205Z,100724.78
2023-05-04T07:54:11.506Z,100714.94
2023-05-04T07:56:58.694Z,100711.78
2023-05-04T07:59:45.931Z,100734.66
2023-05-04T08:02:33.292Z,100725.09
2023-05-04T08:05:20.639Z,100736.81
2023-05-04T08:08:09.430Z,100756.34
2023-05-04T08:11:07.985Z,100753.69
2023-05-04T08:14:03.988Z,100755.19
2023-05-04T08:16:51.216Z,100738.91
2023-05-04T08:19:38.405Z,100731.59
2023-05-04T08:22:25.887Z,100724.28
2023-05-04T08:25:13.342Z,100724.28
2023-05-04T08:28:00.725Z,100716.66
2023-05-04T08:30:47.939Z,100695.84
2023-05-04T08:33:35.172Z,100691.56
2023-05-04T08:36:22.414Z,100702.38
2023-05-04T08:39:10.127Z,100709.63
2023-05-04T08:41:57.504Z,100708.38
2023-05-04T08:44:44.768Z,100707.50
2023-05-04T08:47:32.075Z,100705.56
2023-05-04T08:50:19.555Z,100707.66
2023-05-04T08:53:12.079Z,100706.69
2023-05-04T08:56:04.687Z,100712.00
2023-05-04T08:58:52.942Z,100710.72
2023-05-04T09:01:42.237Z,100718.25
2023-05-04T09:04:31.400Z,100710.13
2023-05-04T09:07:20.696Z,100708.09
2023-05-04T09:10:09.016Z,100707.63
2023-05-04T09:12:56.437Z,100704.25
2023-05-04T09:15:58.211Z,100705.81
2023-05-04T09:18:46.144Z,100703.41
2023-05-04T09:21:33.514Z,100694.09
2023-05-04T09:24:30.880Z,100680.78
2023-05-04T09:27:18.467Z,100663.81
2023-05-04T09:30:07.163Z,100647.16
2023-05-04T09:32:54.487Z,100642.66
2023-05-04T09:35:44.683Z,100633.06
2023-05-04T09:38:32.806Z,100630.47
2023-05-04T09:41:32.024Z,100628.34
2023-05-04T09:44:24.506Z,100606.69
2023-05-04T09:47:11.930Z,100618.94
2023-05-04T09:49:59.669Z,100616.53
2023-05-04T09:52:47.764Z,100611.06
2023-05-04T09:55:35.070Z,100611.06
2023-05-04T09:58:24.021Z,100622.16
2023-05-04T10:14:35.853Z,100587.13
2023-05-04T10:17:41.981Z,100581.94
2023-05-04T10:21:01.269Z,100573.31
2023-05-04T10:24:15.999Z,100580.06
2023-05-04T10:27:12.265Z,100569.16
2023-05-04T10:30:01.681Z,100566.25
2023-05-04T10:32:59.106Z,100566.75
2023-05-04T10:35:55.949Z,100560.97
2023-05-04T10:38:43.258Z,100546.75
2023-05-04T10:41:30.557Z,100542.56
2023-05-04T10:44:17.820Z,100528.34
2023-05-04T10:47:08.095Z,100520.88
2023-05-04T10:50:11.372Z,100521.34
2023-05-04T10:53:00.031Z,100511.28
2023-05-04T10:55:49.004Z,100501.63
2023-05-04T10:58:36.369Z,100495.31
2023-05-04T11:01:24.250Z,100484.78
2023-05-04T11:04:22.683Z,100500.34
2023-05-04T11:07:10.033Z,100494.25
2023-05-04T11:09:57.508Z,100515.09
2023-05-04T11:12:44.803Z,100517.41
2023-05-04T11:15:33.109Z,100494.91
2023-05-04T11:18:34.579Z,100474.69
2023-05-04T11:21:26.371Z,100480.53
2023-05-04T11:24:13.914Z,100460.75
2023-05-04T11:27:01.434Z,100464.13
2023-05-04T11:30:04.706Z,100461.34
2023-05-04T11:32:51.989Z,100478.75
2023-05-04T11:35:40.123Z,100465.03
2023-05-04T11:38:27.682Z,100451.72
2023-05-04T11:41:15.196Z,100439.69
2023-05-04T11:44:03.682Z,100453.41
2023-05-04T11:46:51.983Z,100446.94
2023-05-04T11:49:39.574Z,100440.03
2023-05-04T11:52:27.769Z,100443.63
2023-05-04T11:55:32.258Z,100436.03
2023-05-04T11:58:26.116Z,100427.81
2023-05-04T12:01:13.813Z,100416.47
2023-05-04T12:04:01.389Z,100398.78
2023-05-04T12:06:49.790Z,100401.47
2023-05-04T12:09:48.286Z,100395.75
2023-05-04T12:12:36.705Z,100383.69
2023-05-04T12:15:37.532Z,100378.44
2023-05-04T12:18:29.856Z,100358.16
2023-05-04T12:21:23.937Z,100366.44
2023-05-04T12:24:11.173Z,100367.75
2023-05-04T12:26:58.415Z,100350.00
2023-05-04T12:29:45.643Z,100350.16
2023-05-04T12:32:32.942Z,100350.97
2023-05-04T12:35:20.318Z,100341.22
2023-05-04T12:38:07.566Z,100335.09
2023-05-04T12:40:56.321Z,100345.75
2023-05-04T12:43:43.646Z,100340.69
2023-05-04T12:46:31.149Z,100340.28
2023-05-04T12:49:18.548Z,100326.41
2023-05-04T12:52:06.194Z,100322.16
2023-05-04T12:54:53.464Z,100323.97
2023-05-04T12:57:45.142Z,100320.63
2023-05-04T13:00:36.541Z,100313.84
2023-05-04T13:03:24.313Z,100313.72
2023-05-04T13:06:11.759Z,100302.88
2023-05-04T13:09:01.863Z,100292.06
2023-05-04T13:11:49.983Z,100270.00
2023-05-04T13:14:39.953Z,100271.56
2023-05-04T13:17:29.892Z,100267.72
2023-05-04T13:20:17.299Z,100259.38
2023-05-04T13:23:04.582Z,100259.66
2023-05-04T13:25:52.481Z,100273.22
2023-05-04T13:28:39.851Z,100287.00
2023-05-04T13:31:27.168Z,100259.94
2023-05-04T13:34:14.452Z,100262.31
2023-05-04T13:37:01.669Z,100265.16
2023-05-04T13:39:49.079Z,100274.22
2023-05-04T13:42:37.404Z,100275.56
2023-05-04T13:45:25.219Z,100268.91
2023-05-04T13:48:12.803Z,100266.03
2023-05-04T13:51:00.022Z,100252.16
2023-05-04T13:53:47.214Z,100247.75
2023-05-04T13:56:34.476Z,100248.81
2023-05-04T13:59:21.684Z,100230.72
2023-05-04T14:02:08.940Z,100235.50
2023-05-04T14:04:56.225Z,100213.31
2023-05-04T14:07:43.489Z,100214.91
2023-05-04T14:10:30.703Z,100212.97
2023-05-04T14:13:18.695Z,100209.91
2023-05-04T14:16:06.279Z,100214.91
2023-05-04T14:18:53.542Z,100210.88
2023-05-04T14:21:40.757Z,100214.44
2023-05-04T14:24:28.045Z,100202.72
2023-05-04T14:27:15.301Z,100203.06
2023-05-04T14:30:06.359Z,100197.19
2023-05-04T14:32:55.670Z,100188.06
2023-05-04T14:35:45.105Z,100165.16
2023-05-04T14:38:35.543Z,100183.19
2023-05-04T14:41:22.789Z,100167.81
2023-05-04T14:44:10.174Z,100170.13
2023-05-04T14:46:57.554Z,100168.72
2023-05-04T14:49:47.848Z,100172.81
2023-05-04T14:52:35.123Z,100172.50
2023-05-04T14:55:22.513Z,100174.16
2023-05-04T14:58:10.252Z,100165.84
2023-05-04T15:00:57.714Z,100168.34
2023-05-04T15:03:45.749Z,100153.31
2023-05-04T15:06:34.199Z,100186.28
2023-05-04T15:09:21.475Z,100157.84
2023-05-04T15:12:08.917Z,100151.97
2023-05-04T15:14:56.128Z,100159.69
2023-05-04T15:17:43.484Z,100160.75
2023-05-04T15:20:30.740Z,100160.28
2023-05-04T15:23:18.032Z,100149.66
2023-05-04T15:26:05.302Z,100148.00
2023-05-04T15:28:53.985Z,100157.97
2023-05-04T15:31:41.798Z,100143.53
2023-05-04T15:34:29.080Z,100141.06
2023-05-04T15:37:16.309Z,100149.28
2023-05-04T15:40:05.049Z,100162.38
2023-05-04T15:42:53.196Z,100148.94
2023-05-04T15:45:40.398Z,100143.53
2023-05-04T15:48:30.724Z,100129.78
2023-05-04T15:51:19.054Z,100139.88
2023-05-04T15:54:06.365Z,100121.28
2023-05-04T15:56:53.614Z,100121.78
2023-05-04T15:59:41.035Z,100129.78
2023-05-04T16:02:28.576Z,100112.69
2023-05-04T16:05:15.869Z,100119.81
2023-05-04T16:08:03.321Z,100136.78
2023-05-04T16:10:52.247Z,100122.94
2023-05-04T16:13:39.494Z,100133.13
2023-05-04T16:16:26.859Z,100137.91
2023-05-04T16:19:14.101Z,100130.91
2023-05-04T16:22:01.543Z,100116.84
2023-05-04T16:24:48.816Z,100122.25
2023-05-04T16:27:36.052Z,100119.75
2023-05-04T16:30:26.391Z,100111.91
2023-05-04T16:33:13.766Z,100117.69
2023-05-04T16:36:01.100Z,100104.91
2023-05-04T16:38:48.633Z,100097.13
2023-05-04T16:41:36.736Z,100103.28
2023-05-04T16:44:24.557Z,100088.97
2023-05-04T16:47:11.861Z,100097.78
2023-05-04T16:49:59.205Z,100094.50
2023-05-04T16:52:46.965Z,100100.44
2023-05-04T16:55:34.245Z,100103.91
2023-05-04T16:58:21.491Z,100109.88
2023-05-04T17:01:10.958Z,100099.16
2023-05-04T17:03:58.918Z,100083.66
2023-05-04T17:06:46.302Z,100090.84
2023-05-04T17:09:33.541Z,100086.50
2023-05-04T17:12:22.137Z,100084.69
2023-05-04T17:15:11.139Z,100080.28
2023-05-04T17:17:58.555Z,100089.53
2023-05-04T17:20:45.794Z,100072.34
2023-05-04T17:23:33.043Z,100084.59
2023-05-04T17:26:20.373Z,100080.03
2023-05-04T17:29:07.912Z,100071.69
2023-05-04T17:31:55.171Z,100085.09
2023-05-04T17:34:42.397Z,100076.06
2023-05-04T17:37:29.624Z,100066.91
2023-05-04T17:40:16.967Z,100070.03
2023-05-04T17:43:04.197Z,100062.09
2023-05-04T17:45:53.103Z,100062.91
2023-05-04T17:48:42.481Z,100064.25
2023-05-04T17:51:29.727Z,100061.13
2023-05-04T17:54:17.375Z,100055.25
2023-05-04T17:57:04.785Z,100051.72
2023-05-04T17:59:52.051Z,100053.44
2023-05-04T18:02:39.322Z,100060.16
2023-05-04T18:05:26.608Z,100061.41
2023-05-04T18:08:14.347Z,100044.22
2023-05-04T18:11:01.607Z,100048.03
2023-05-04T18:13:48.944Z,100042.16
2023-05-04T18:16:37.916Z,100041.53
2023-05-04T18:19:26.904Z,100045.97
2023-05-04T18:22:14.193Z,100047.25
2023-05-04T18:25:02.254Z,100038.25
2023-05-04T18:27:49.468Z,100038.91
2023-05-04T18:30:36.772Z,100045.25
2023-05-04T18:33:24.038Z,100038.72
2023-05-04T18:36:11.379Z,100035.16
2023-05-04T18:39:01.018Z,100032.03
2023-05-04T18:41:48.242Z,100030.56
2023-05-04T18:44:35.557Z,100054.69
2023-05-04T18:47:23.019Z,100049.88
2023-05-04T18:50:11.016Z,100035.41
2023-05-04T18:52:58.329Z,100039.59
2023-05-04T18:55:45.565Z,100034.81
2023-05-04T18:58:33.297Z,100032.28
2023-05-04T19:01:22.127Z,100042.53
2023-05-04T19:04:09.495Z,100044.66
2023-05-04T19:06:58.083Z,100049.88
2023-05-04T19:09:48.016Z,100045.91
2023-05-04T19:12:35.282Z,100038.13
2023-05-04T19:15:23.398Z,100051.31
2023-05-04T19:18:10.909Z,100054.88
2023-05-04T19:20:58.495Z,100065.75
2023-05-04T19:23:46.280Z,100068.03
2023-05-04T19:26:33.585Z,100075.69
2023-05-04T19:29:20.809Z,100073.94
2023-05-04T19:32:19.821Z,100109.66
2023-05-04T19:35:11.785Z,100135.59
2023-05-04T19:37:59.627Z,100133.25
2023-05-04T19:40:47.563Z,100136.38
2023-05-04T19:43:35.623Z,100132.78
2023-05-04T19:46:23.426Z,100137.81
2023-05-04T19:49:12.316Z,100142.59
2023-05-04T19:51:59.568Z,100132.19
2023-05-04T19:54:48.734Z,100122.75
2023-05-04T19:57:36.584Z,100125.84
2023-05-04T20:00:23.900Z,100123.97
2023-05-04T20:03:11.284Z,100133.19
2023-05-04T20:05:58.796Z,100131.53
2023-05-04T20:08:46.105Z,100134.69
2023-05-04T20:11:34.019Z,100118.19
2023-05-04T20:14:21.290Z,100122.00
2023-05-04T20:17:08.662Z,100124.72
2023-05-04T20:19:56.131Z,100132.44
2023-05-04T20:22:43.459Z,100135.78
2023-05-04T20:25:30.729Z,100132.00
2023-05-04T20:28:18.146Z,100127.81
2023-05-04T20:31:06.043Z,100132.00
2023-05-04T20:33:53.314Z,100118.59
2023-05-04T20:36:40.552Z,100127.00
2023-05-04T20:39:28.347Z,100119.50
2023-05-04T20:42:15.793Z,100127.06
2023-05-04T20:45:03.154Z,100125.41
2023-05-04T20:47:51.064Z,100127.09
2023-05-04T20:50:40.377Z,100132.13
2023-05-04T20:53:30.745Z,100125.47
2023-05-04T20:56:18.061Z,100124.03
2023-05-04T20:59:05.759Z,100120.91
2023-05-04T21:01:53.121Z,100124.03
2023-05-04T21:04:42.020Z,100136.44
2023-05-04T21:07:29.284Z,100132.66
2023-05-04T21:10:16.563Z,100133.34
2023-05-04T21:13:03.879Z,100134.19
2023-05-04T21:15:51.841Z,100128.75
2023-05-04T21:18:40.138Z,100125.63
2023-05-04T21:21:28.218Z,100118.50
2023-05-04T21:24:16.703Z,100120.19
2023-05-04T21:27:04.690Z,100127.50
2023-05-04T21:29:52.071Z,100126.44
2023-05-04T21:32:39.371Z,100126.66
2023-05-04T21:35:31.142Z,100128.75
2023-05-04T21:38:21.066Z,100123.50
2023-05-04T21:41:16.497Z,100113.84
2023-05-04T21:44:03.969Z,100121.38
2023-05-04T21:46:52.153Z,100116.56
2023-05-04T21:49:39.397Z,100121.16
2023-05-04T21:52:26.923Z,100119.66
2023-05-04T21:55:15.515Z,100123.25
2023-05-04T21:58:02.816Z,100125.97
2023-05-04T22:00:50.082Z,100119.66
2023-05-04T22:03:37.444Z,100118.84
2023-05-04T22:06:24.830Z,100128.91
2023-05-04T22:09:13.638Z,100132.66
2023-05-04T22:12:01.209Z,100126.19
2023-05-04T22:14:48.454Z,100130.78
2023-05-04T22:17:35.717Z,100125.13
2023-05-04T22:20:23.693Z,100125.78
2023-05-04T22:23:11.356Z,100125.13
2023-05-04T22:25:58.758Z,100134.34
2023-05-04T22:28:45.976Z,100136.22
2023-05-04T22:31:33.218Z,100135.81
2023-05-04T22:34:20.682Z,100132.25
2023-05-04T22:37:07.957Z,100134.59
2023-05-04T22:39:55.165Z,100130.16
2023-05-04T22:42:45.128Z,100142.16
2023-05-04T22:45:36.574Z,100137.09
2023-05-04T22:48:23.963Z,100138.78
2023-05-04T22:51:11.193Z,100132.53
2023-05-04T22:53:58.555Z,100141.06
2023-05-04T22:56:45.816Z,100134.97
2023-05-04T22:59:33.144Z,100141.44
2023-05-04T23:02:20.435Z,100140.63
2023-05-04T23:05:09.261Z,100134.34
2023-05-04T23:07:56.531Z,100144.16
2023-05-04T23:10:47.202Z,100132.44
2023-05-04T23:13:34.524Z,100148.78
2023-05-04T23:16:22.325Z,100138.09
2023-05-04T23:19:09.719Z,100138.94
2023-05-04T23:21:59.941Z,100142.13
2023-05-04T23:24:47.169Z,100145.22
2023-05-04T23:27:34.500Z,100146.25
2023-05-04T23:30:21.697Z,100146.88
2023-05-04T23:33:08.992Z,100147.72
2023-05-04T23:35:56.539Z,100148.53
2023-05-04T23:38:43.773Z,100148.34
2023-05-04T23:41:31.103Z,100159.00
2023-05-04T23:44:18.399Z,100156.50
2023-05-04T23:47:05.806Z,100160.88
2023-05-04T23:49:53.040Z,100149.78
2023-05-04T23:52:40.270Z,100160.69
2023-05-04T23:55:27.687Z,100143.91
2023-05-04T23:58:14.909Z,100154.59
